Terminal Aerodrome Forecast
Issued by NWS Shreveport, LA

Home | Current Version | Previous Version | Text Only | Print | Product List | Glossary On
Versions: 1 2 3 4 5 6 7 8 9 10 11 12 13 14 15 16 17 18
000
FTUS44 KSHV 291100
TAFTXK
TAF
KTXK 291127Z 2912/3012 18006KT P6SM VCSH SCT090 BKN120 OVC250
      TEMPO 2914/2918 5SM -TSRA BR BKN045CB
     FM291800 18007KT P6SM VCTS SCT050CB SCT130 BKN250
     FM300000 17006KT P6SM VCTS SCT050CB OVC120
      TEMPO 3009/3012 P6SM NSW BKN015=

USA.gov is the U.S. government's official web portal to all federal, state and local government web resources and services.